sensor_id;sensor_type;location;lat;lon;timestamp;P1;durP1;ratioP1;P2;durP2;ratioP2
66327;SDS011;53133;52.862;6.602;2022-07-10T00:00:03;5.93;;;1.65;;
66327;SDS011;53133;52.862;6.602;2022-07-10T00:02:32;8.48;;;1.80;;
66327;SDS011;53133;52.862;6.602;2022-07-10T00:04:57;4.72;;;1.50;;
66327;SDS011;53133;52.862;6.602;2022-07-10T00:07:23;4.70;;;1.88;;
66327;SDS011;53133;52.862;6.602;2022-07-10T00:09:48;5.60;;;1.60;;
66327;SDS011;53133;52.862;6.602;2022-07-10T00:12:14;4.60;;;1.70;;
66327;SDS011;53133;52.862;6.602;2022-07-10T00:14:40;9.90;;;1.63;;
66327;SDS011;53133;52.862;6.602;2022-07-10T00:17:05;9.45;;;2.00;;
66327;SDS011;53133;52.862;6.602;2022-07-10T00:19:31;8.95;;;2.25;;
66327;SDS011;53133;52.862;6.602;2022-07-10T00:21:56;4.97;;;1.65;;
66327;SDS011;53133;52.862;6.602;2022-07-10T00:24:22;9.55;;;2.08;;
66327;SDS011;53133;52.862;6.602;2022-07-10T00:26:47;6.90;;;1.92;;
66327;SDS011;53133;52.862;6.602;2022-07-10T00:29:13;6.07;;;1.85;;
66327;SDS011;53133;52.862;6.602;2022-07-10T00:31:39;8.18;;;1.63;;
66327;SDS011;53133;52.862;6.602;2022-07-10T00:34:05;5.10;;;1.70;;
66327;SDS011;53133;52.862;6.602;2022-07-10T00:36:31;9.93;;;2.25;;
66327;SDS011;53133;52.862;6.602;2022-07-10T00:38:57;7.88;;;1.77;;
66327;SDS011;53133;52.862;6.602;2022-07-10T00:41:22;7.82;;;1.50;;
66327;SDS011;53133;52.862;6.602;2022-07-10T00:43:58;5.57;;;1.67;;
66327;SDS011;53133;52.862;6.602;2022-07-10T00:46:25;7.00;;;2.05;;
66327;SDS011;53133;52.862;6.602;2022-07-10T00:48:51;5.90;;;2.08;;
66327;SDS011;53133;52.862;6.602;2022-07-10T00:51:18;10.52;;;2.22;;
66327;SDS011;53133;52.862;6.602;2022-07-10T00:53:46;7.55;;;1.70;;
66327;SDS011;53133;52.862;6.602;2022-07-10T00:56:15;7.65;;;2.00;;
66327;SDS011;53133;52.862;6.602;2022-07-10T00:58:42;7.53;;;1.80;;
66327;SDS011;53133;52.862;6.602;2022-07-10T01:01:10;7.95;;;1.60;;
66327;SDS011;53133;52.862;6.602;2022-07-10T01:03:36;8.85;;;1.98;;
66327;SDS011;53133;52.862;6.602;2022-07-10T01:06:02;10.25;;;2.00;;
66327;SDS011;53133;52.862;6.602;2022-07-10T01:08:28;6.53;;;1.70;;
66327;SDS011;53133;52.862;6.602;2022-07-10T01:10:54;8.05;;;1.60;;
66327;SDS011;53133;52.862;6.602;2022-07-10T01:13:19;6.18;;;1.90;;
66327;SDS011;53133;52.862;6.602;2022-07-10T01:15:46;6.35;;;2.13;;
66327;SDS011;53133;52.862;6.602;2022-07-10T01:18:12;10.23;;;2.50;;
66327;SDS011;53133;52.862;6.602;2022-07-10T01:20:39;6.38;;;1.98;;
66327;SDS011;53133;52.862;6.602;2022-07-10T01:23:05;8.40;;;1.83;;
66327;SDS011;53133;52.862;6.602;2022-07-10T01:25:30;6.45;;;1.67;;
66327;SDS011;53133;52.862;6.602;2022-07-10T01:27:56;6.25;;;1.40;;
66327;SDS011;53133;52.862;6.602;2022-07-10T01:30:23;7.30;;;1.85;;
66327;SDS011;53133;52.862;6.602;2022-07-10T01:32:49;10.32;;;1.88;;
66327;SDS011;53133;52.862;6.602;2022-07-10T01:35:15;5.95;;;1.70;;
66327;SDS011;53133;52.862;6.602;2022-07-10T01:37:41;8.43;;;1.98;;
66327;SDS011;53133;52.862;6.602;2022-07-10T01:40:07;9.15;;;2.28;;
66327;SDS011;53133;52.862;6.602;2022-07-10T01:42:34;11.82;;;2.05;;
66327;SDS011;53133;52.862;6.602;2022-07-10T01:44:59;7.85;;;2.20;;
66327;SDS011;53133;52.862;6.602;2022-07-10T01:47:25;9.65;;;2.03;;
66327;SDS011;53133;52.862;6.602;2022-07-10T01:49:52;10.63;;;2.10;;
66327;SDS011;53133;52.862;6.602;2022-07-10T01:52:19;6.28;;;2.10;;
66327;SDS011;53133;52.862;6.602;2022-07-10T01:54:45;8.43;;;1.88;;
66327;SDS011;53133;52.862;6.602;2022-07-10T01:57:11;9.27;;;1.98;;
66327;SDS011;53133;52.862;6.602;2022-07-10T01:59:38;6.53;;;1.80;;
66327;SDS011;53133;52.862;6.602;2022-07-10T02:02:04;7.97;;;1.95;;
66327;SDS011;53133;52.862;6.602;2022-07-10T02:04:30;8.75;;;1.77;;
66327;SDS011;53133;52.862;6.602;2022-07-10T02:07:11;6.70;;;1.77;;
66327;SDS011;53133;52.862;6.602;2022-07-10T02:09:41;7.15;;;1.75;;
66327;SDS011;53133;52.862;6.602;2022-07-10T02:12:08;10.10;;;2.22;;
66327;SDS011;53133;52.862;6.602;2022-07-10T02:14:36;11.65;;;2.22;;
66327;SDS011;53133;52.862;6.602;2022-07-10T02:17:03;7.80;;;1.98;;
66327;SDS011;53133;52.862;6.602;2022-07-10T02:19:29;7.35;;;1.70;;
66327;SDS011;53133;52.862;6.602;2022-07-10T02:21:55;11.20;;;2.15;;
66327;SDS011;53133;52.862;6.602;2022-07-10T02:24:21;8.80;;;1.98;;
66327;SDS011;53133;52.862;6.602;2022-07-10T02:26:47;7.35;;;1.73;;
66327;SDS011;53133;52.862;6.602;2022-07-10T02:29:13;8.98;;;2.20;;
66327;SDS011;53133;52.862;6.602;2022-07-10T02:31:38;9.45;;;1.98;;
66327;SDS011;53133;52.862;6.602;2022-07-10T02:34:07;6.53;;;1.77;;
66327;SDS011;53133;52.862;6.602;2022-07-10T02:36:33;9.88;;;2.30;;
66327;SDS011;53133;52.862;6.602;2022-07-10T02:38:59;8.05;;;2.10;;
66327;SDS011;53133;52.862;6.602;2022-07-10T02:41:25;6.57;;;1.98;;
66327;SDS011;53133;52.862;6.602;2022-07-10T02:43:51;8.88;;;1.85;;
66327;SDS011;53133;52.862;6.602;2022-07-10T02:46:17;9.75;;;2.17;;
66327;SDS011;53133;52.862;6.602;2022-07-10T02:48:43;6.63;;;1.92;;
66327;SDS011;53133;52.862;6.602;2022-07-10T02:51:08;8.45;;;2.05;;
66327;SDS011;53133;52.862;6.602;2022-07-10T02:53:34;6.97;;;1.83;;
66327;SDS011;53133;52.862;6.602;2022-07-10T02:55:59;8.10;;;1.80;;
66327;SDS011;53133;52.862;6.602;2022-07-10T02:58:25;8.57;;;1.85;;
66327;SDS011;53133;52.862;6.602;2022-07-10T03:00:51;7.50;;;1.63;;
66327;SDS011;53133;52.862;6.602;2022-07-10T03:03:17;8.88;;;1.92;;
66327;SDS011;53133;52.862;6.602;2022-07-10T03:05:43;6.35;;;1.73;;
66327;SDS011;53133;52.862;6.602;2022-07-10T03:08:10;9.50;;;2.10;;
66327;SDS011;53133;52.862;6.602;2022-07-10T03:10:35;8.90;;;2.13;;
66327;SDS011;53133;52.862;6.602;2022-07-10T03:13:01;6.10;;;1.95;;
66327;SDS011;53133;52.862;6.602;2022-07-10T03:15:26;11.65;;;2.35;;
66327;SDS011;53133;52.862;6.602;2022-07-10T03:17:52;7.22;;;1.80;;
66327;SDS011;53133;52.862;6.602;2022-07-10T03:20:18;9.70;;;2.05;;
66327;SDS011;53133;52.862;6.602;2022-07-10T03:22:43;9.65;;;2.10;;
66327;SDS011;53133;52.862;6.602;2022-07-10T03:25:10;7.05;;;1.95;;
66327;SDS011;53133;52.862;6.602;2022-07-10T03:27:35;8.65;;;1.70;;
66327;SDS011;53133;52.862;6.602;2022-07-10T03:30:01;7.85;;;1.83;;
66327;SDS011;53133;52.862;6.602;2022-07-10T03:32:27;6.95;;;2.00;;
66327;SDS011;53133;52.862;6.602;2022-07-10T03:34:52;6.75;;;1.65;;
66327;SDS011;53133;52.862;6.602;2022-07-10T03:37:18;8.55;;;1.90;;
66327;SDS011;53133;52.862;6.602;2022-07-10T03:39:43;5.72;;;1.73;;
66327;SDS011;53133;52.862;6.602;2022-07-10T03:42:09;8.13;;;1.98;;
66327;SDS011;53133;52.862;6.602;2022-07-10T03:44:35;8.80;;;2.00;;
66327;SDS011;53133;52.862;6.602;2022-07-10T03:47:00;6.55;;;1.70;;
66327;SDS011;53133;52.862;6.602;2022-07-10T03:49:26;10.65;;;2.10;;
66327;SDS011;53133;52.862;6.602;2022-07-10T03:51:52;10.40;;;2.00;;
66327;SDS011;53133;52.862;6.602;2022-07-10T03:54:17;5.35;;;1.92;;
66327;SDS011;53133;52.862;6.602;2022-07-10T03:56:43;10.15;;;1.77;;
66327;SDS011;53133;52.862;6.602;2022-07-10T03:59:27;10.90;;;2.00;;
66327;SDS011;53133;52.862;6.602;2022-07-10T04:01:53;4.97;;;1.85;;
66327;SDS011;53133;52.862;6.602;2022-07-10T04:04:19;8.73;;;1.95;;
66327;SDS011;53133;52.862;6.602;2022-07-10T04:06:44;6.85;;;1.75;;
66327;SDS011;53133;52.862;6.602;2022-07-10T04:09:10;4.68;;;1.67;;
66327;SDS011;53133;52.862;6.602;2022-07-10T04:11:35;7.28;;;2.17;;
66327;SDS011;53133;52.862;6.602;2022-07-10T04:14:01;10.75;;;1.55;;
66327;SDS011;53133;52.862;6.602;2022-07-10T04:16:26;11.35;;;1.75;;
66327;SDS011;53133;52.862;6.602;2022-07-10T04:18:52;6.30;;;1.45;;
66327;SDS011;53133;52.862;6.602;2022-07-10T04:21:18;8.93;;;1.95;;
66327;SDS011;53133;52.862;6.602;2022-07-10T04:23:44;6.10;;;2.05;;
66327;SDS011;53133;52.862;6.602;2022-07-10T04:26:10;9.98;;;1.80;;
66327;SDS011;53133;52.862;6.602;2022-07-10T04:28:35;7.88;;;1.80;;
66327;SDS011;53133;52.862;6.602;2022-07-10T04:31:01;7.10;;;1.45;;
66327;SDS011;53133;52.862;6.602;2022-07-10T04:33:26;7.00;;;1.85;;
66327;SDS011;53133;52.862;6.602;2022-07-10T04:35:52;5.65;;;1.48;;
66327;SDS011;53133;52.862;6.602;2022-07-10T04:38:17;7.05;;;1.70;;
66327;SDS011;53133;52.862;6.602;2022-07-10T04:40:43;5.95;;;1.60;;
66327;SDS011;53133;52.862;6.602;2022-07-10T04:43:09;9.23;;;1.65;;
66327;SDS011;53133;52.862;6.602;2022-07-10T04:45:37;9.88;;;1.90;;
66327;SDS011;53133;52.862;6.602;2022-07-10T04:48:04;6.80;;;2.08;;
66327;SDS011;53133;52.862;6.602;2022-07-10T04:50:30;9.68;;;1.95;;
66327;SDS011;53133;52.862;6.602;2022-07-10T04:52:55;9.02;;;1.83;;
66327;SDS011;53133;52.862;6.602;2022-07-10T04:55:21;9.48;;;1.90;;
66327;SDS011;53133;52.862;6.602;2022-07-10T04:57:47;7.93;;;2.03;;
66327;SDS011;53133;52.862;6.602;2022-07-10T05:00:13;12.45;;;2.15;;
66327;SDS011;53133;52.862;6.602;2022-07-10T05:02:39;7.35;;;1.85;;
66327;SDS011;53133;52.862;6.602;2022-07-10T05:05:05;4.32;;;1.85;;
66327;SDS011;53133;52.862;6.602;2022-07-10T05:07:30;9.00;;;2.03;;
66327;SDS011;53133;52.862;6.602;2022-07-10T05:09:56;9.48;;;1.55;;
66327;SDS011;53133;52.862;6.602;2022-07-10T05:12:21;9.07;;;1.88;;
66327;SDS011;53133;52.862;6.602;2022-07-10T05:14:47;6.03;;;1.90;;
66327;SDS011;53133;52.862;6.602;2022-07-10T05:17:12;10.27;;;2.20;;
66327;SDS011;53133;52.862;6.602;2022-07-10T05:19:38;6.18;;;1.85;;
66327;SDS011;53133;52.862;6.602;2022-07-10T05:22:04;11.27;;;1.80;;
66327;SDS011;53133;52.862;6.602;2022-07-10T05:24:29;7.15;;;1.80;;
66327;SDS011;53133;52.862;6.602;2022-07-10T05:26:55;6.30;;;3.35;;
66327;SDS011;53133;52.862;6.602;2022-07-10T05:29:20;8.15;;;2.85;;
66327;SDS011;53133;52.862;6.602;2022-07-10T05:31:46;8.48;;;2.30;;
66327;SDS011;53133;52.862;6.602;2022-07-10T05:34:11;8.73;;;2.47;;
66327;SDS011;53133;52.862;6.602;2022-07-10T05:36:37;9.77;;;2.85;;
66327;SDS011;53133;52.862;6.602;2022-07-10T05:39:02;8.90;;;2.70;;
66327;SDS011;53133;52.862;6.602;2022-07-10T05:41:28;7.95;;;2.65;;
66327;SDS011;53133;52.862;6.602;2022-07-10T05:43:54;11.32;;;2.55;;
66327;SDS011;53133;52.862;6.602;2022-07-10T05:46:20;7.50;;;2.60;;
66327;SDS011;53133;52.862;6.602;2022-07-10T05:48:45;9.85;;;2.42;;
66327;SDS011;53133;52.862;6.602;2022-07-10T05:51:11;9.70;;;2.72;;
66327;SDS011;53133;52.862;6.602;2022-07-10T05:53:37;12.10;;;2.63;;
66327;SDS011;53133;52.862;6.602;2022-07-10T05:56:02;8.30;;;3.25;;
66327;SDS011;53133;52.862;6.602;2022-07-10T05:58:28;11.50;;;2.83;;
66327;SDS011;53133;52.862;6.602;2022-07-10T06:00:54;10.95;;;3.38;;
66327;SDS011;53133;52.862;6.602;2022-07-10T06:03:20;8.70;;;2.78;;
66327;SDS011;53133;52.862;6.602;2022-07-10T06:05:46;9.65;;;3.17;;
66327;SDS011;53133;52.862;6.602;2022-07-10T06:08:12;8.35;;;2.95;;
66327;SDS011;53133;52.862;6.602;2022-07-10T06:10:38;9.73;;;3.00;;
66327;SDS011;53133;52.862;6.602;2022-07-10T06:13:05;9.77;;;2.80;;
66327;SDS011;53133;52.862;6.602;2022-07-10T06:15:31;12.05;;;3.20;;
66327;SDS011;53133;52.862;6.602;2022-07-10T06:17:57;7.13;;;2.70;;
66327;SDS011;53133;52.862;6.602;2022-07-10T06:20:23;9.32;;;2.88;;
66327;SDS011;53133;52.862;6.602;2022-07-10T06:22:50;7.55;;;2.85;;
66327;SDS011;53133;52.862;6.602;2022-07-10T06:25:15;10.70;;;3.13;;
66327;SDS011;53133;52.862;6.602;2022-07-10T06:27:41;7.05;;;2.78;;
66327;SDS011;53133;52.862;6.602;2022-07-10T06:30:06;7.70;;;2.67;;
66327;SDS011;53133;52.862;6.602;2022-07-10T06:32:32;12.02;;;3.20;;
66327;SDS011;53133;52.862;6.602;2022-07-10T06:34:58;9.85;;;2.97;;
66327;SDS011;53133;52.862;6.602;2022-07-10T06:37:24;11.73;;;2.90;;
66327;SDS011;53133;52.862;6.602;2022-07-10T06:39:50;8.52;;;2.85;;
66327;SDS011;53133;52.862;6.602;2022-07-10T06:42:16;7.78;;;2.33;;
66327;SDS011;53133;52.862;6.602;2022-07-10T06:44:42;8.20;;;2.88;;
66327;SDS011;53133;52.862;6.602;2022-07-10T06:47:08;10.68;;;2.90;;
66327;SDS011;53133;52.862;6.602;2022-07-10T06:49:53;8.15;;;2.22;;
66327;SDS011;53133;52.862;6.602;2022-07-10T06:52:19;11.95;;;2.40;;
66327;SDS011;53133;52.862;6.602;2022-07-10T06:54:45;7.82;;;2.03;;
66327;SDS011;53133;52.862;6.602;2022-07-10T06:57:11;10.70;;;2.30;;
66327;SDS011;53133;52.862;6.602;2022-07-10T06:59:37;7.53;;;2.05;;
66327;SDS011;53133;52.862;6.602;2022-07-10T07:02:03;8.02;;;2.30;;
66327;SDS011;53133;52.862;6.602;2022-07-10T07:04:28;8.70;;;1.85;;
66327;SDS011;53133;52.862;6.602;2022-07-10T07:06:54;6.57;;;1.85;;
66327;SDS011;53133;52.862;6.602;2022-07-10T07:09:20;6.20;;;1.85;;
66327;SDS011;53133;52.862;6.602;2022-07-10T07:11:45;3.83;;;1.60;;
66327;SDS011;53133;52.862;6.602;2022-07-10T07:14:11;5.63;;;1.42;;
66327;SDS011;53133;52.862;6.602;2022-07-10T07:16:36;5.35;;;1.90;;
66327;SDS011;53133;52.862;6.602;2022-07-10T07:19:04;4.53;;;1.77;;
66327;SDS011;53133;52.862;6.602;2022-07-10T07:21:31;6.00;;;1.50;;
66327;SDS011;53133;52.862;6.602;2022-07-10T07:24:15;5.88;;;1.60;;
66327;SDS011;53133;52.862;6.602;2022-07-10T07:26:43;5.97;;;1.55;;
66327;SDS011;53133;52.862;6.602;2022-07-10T07:29:12;8.93;;;2.00;;
66327;SDS011;53133;52.862;6.602;2022-07-10T07:31:41;5.35;;;1.92;;
66327;SDS011;53133;52.862;6.602;2022-07-10T07:34:07;5.45;;;1.63;;
66327;SDS011;53133;52.862;6.602;2022-07-10T07:36:33;4.78;;;1.45;;
66327;SDS011;53133;52.862;6.602;2022-07-10T07:38:59;7.55;;;1.65;;
66327;SDS011;53133;52.862;6.602;2022-07-10T07:41:24;5.43;;;1.58;;
66327;SDS011;53133;52.862;6.602;2022-07-10T07:43:50;4.57;;;1.52;;
66327;SDS011;53133;52.862;6.602;2022-07-10T07:46:17;3.45;;;1.50;;
66327;SDS011;53133;52.862;6.602;2022-07-10T07:48:43;5.80;;;1.70;;
66327;SDS011;53133;52.862;6.602;2022-07-10T07:51:09;3.67;;;1.52;;
66327;SDS011;53133;52.862;6.602;2022-07-10T07:53:34;4.68;;;1.50;;
66327;SDS011;53133;52.862;6.602;2022-07-10T07:56:00;5.95;;;1.40;;
66327;SDS011;53133;52.862;6.602;2022-07-10T07:58:25;7.85;;;1.85;;
66327;SDS011;53133;52.862;6.602;2022-07-10T08:00:51;4.32;;;1.50;;
66327;SDS011;53133;52.862;6.602;2022-07-10T08:03:17;5.50;;;1.38;;
66327;SDS011;53133;52.862;6.602;2022-07-10T08:05:42;4.65;;;1.50;;
66327;SDS011;53133;52.862;6.602;2022-07-10T08:08:08;3.83;;;1.38;;
66327;SDS011;53133;52.862;6.602;2022-07-10T08:10:35;3.38;;;1.40;;
66327;SDS011;53133;52.862;6.602;2022-07-10T08:13:02;4.63;;;1.58;;
66327;SDS011;53133;52.862;6.602;2022-07-10T08:15:28;5.18;;;1.33;;
66327;SDS011;53133;52.862;6.602;2022-07-10T08:17:55;2.78;;;1.50;;
66327;SDS011;53133;52.862;6.602;2022-07-10T08:20:22;4.10;;;1.38;;
66327;SDS011;53133;52.862;6.602;2022-07-10T08:22:48;5.05;;;1.50;;
66327;SDS011;53133;52.862;6.602;2022-07-10T08:25:14;4.60;;;1.30;;
66327;SDS011;53133;52.862;6.602;2022-07-10T08:27:40;6.35;;;1.55;;
66327;SDS011;53133;52.862;6.602;2022-07-10T08:30:06;7.95;;;1.63;;
66327;SDS011;53133;52.862;6.602;2022-07-10T08:32:36;2.90;;;1.30;;
66327;SDS011;53133;52.862;6.602;2022-07-10T08:35:03;5.65;;;1.30;;
66327;SDS011;53133;52.862;6.602;2022-07-10T08:37:29;4.28;;;1.38;;
66327;SDS011;53133;52.862;6.602;2022-07-10T08:39:55;4.97;;;1.70;;
66327;SDS011;53133;52.862;6.602;2022-07-10T08:42:20;4.05;;;1.10;;
66327;SDS011;53133;52.862;6.602;2022-07-10T08:44:47;4.70;;;1.20;;
66327;SDS011;53133;52.862;6.602;2022-07-10T08:47:13;4.60;;;1.10;;
66327;SDS011;53133;52.862;6.602;2022-07-10T08:49:47;3.42;;;1.25;;
66327;SDS011;53133;52.862;6.602;2022-07-10T08:52:14;4.18;;;1.08;;
66327;SDS011;53133;52.862;6.602;2022-07-10T08:54:41;4.25;;;1.30;;
66327;SDS011;53133;52.862;6.602;2022-07-10T08:57:07;4.50;;;1.20;;
66327;SDS011;53133;52.862;6.602;2022-07-10T08:59:34;7.15;;;1.50;;
66327;SDS011;53133;52.862;6.602;2022-07-10T09:02:00;2.92;;;1.35;;
66327;SDS011;53133;52.862;6.602;2022-07-10T09:04:26;4.47;;;1.25;;
66327;SDS011;53133;52.862;6.602;2022-07-10T09:06:53;4.43;;;1.60;;
66327;SDS011;53133;52.862;6.602;2022-07-10T09:09:20;3.35;;;1.20;;
66327;SDS011;53133;52.862;6.602;2022-07-10T09:11:46;2.47;;;1.20;;
66327;SDS011;53133;52.862;6.602;2022-07-10T09:14:15;4.57;;;1.60;;
66327;SDS011;53133;52.862;6.602;2022-07-10T09:19:17;3.88;;;1.55;;
66327;SDS011;53133;52.862;6.602;2022-07-10T09:21:51;4.82;;;1.25;;
66327;SDS011;53133;52.862;6.602;2022-07-10T09:24:18;2.55;;;1.25;;
66327;SDS011;53133;52.862;6.602;2022-07-10T09:29:19;2.22;;;1.40;;
66327;SDS011;53133;52.862;6.602;2022-07-10T09:32:02;3.42;;;1.38;;
66327;SDS011;53133;52.862;6.602;2022-07-10T09:34:39;2.53;;;1.30;;
66327;SDS011;53133;52.862;6.602;2022-07-10T09:39:52;3.78;;;1.92;;
66327;SDS011;53133;52.862;6.602;2022-07-10T09:42:28;4.05;;;1.63;;
66327;SDS011;53133;52.862;6.602;2022-07-10T09:45:12;4.68;;;1.77;;
66327;SDS011;53133;52.862;6.602;2022-07-10T09:47:38;3.05;;;1.55;;
66327;SDS011;53133;52.862;6.602;2022-07-10T09:50:23;5.25;;;1.90;;
66327;SDS011;53133;52.862;6.602;2022-07-10T09:52:53;6.35;;;1.95;;
66327;SDS011;53133;52.862;6.602;2022-07-10T09:55:21;6.03;;;1.70;;
66327;SDS011;53133;52.862;6.602;2022-07-10T09:58:04;3.10;;;1.70;;
66327;SDS011;53133;52.862;6.602;2022-07-10T10:00:32;6.07;;;1.83;;
66327;SDS011;53133;52.862;6.602;2022-07-10T10:03:11;3.78;;;1.80;;
66327;SDS011;53133;52.862;6.602;2022-07-10T10:08:27;9.60;;;2.45;;
66327;SDS011;53133;52.862;6.602;2022-07-10T10:10:55;6.38;;;1.95;;
66327;SDS011;53133;52.862;6.602;2022-07-10T10:13:23;6.60;;;2.08;;
66327;SDS011;53133;52.862;6.602;2022-07-10T10:15:53;5.40;;;2.10;;
66327;SDS011;53133;52.862;6.602;2022-07-10T10:18:20;6.53;;;2.10;;
66327;SDS011;53133;52.862;6.602;2022-07-10T10:20:47;5.18;;;2.30;;
66327;SDS011;53133;52.862;6.602;2022-07-10T10:23:17;4.22;;;1.90;;
66327;SDS011;53133;52.862;6.602;2022-07-10T10:25:46;4.00;;;1.90;;
66327;SDS011;53133;52.862;6.602;2022-07-10T10:28:16;5.60;;;1.95;;
66327;SDS011;53133;52.862;6.602;2022-07-10T10:30:45;6.10;;;2.00;;
66327;SDS011;53133;52.862;6.602;2022-07-10T10:35:59;7.50;;;2.00;;
66327;SDS011;53133;52.862;6.602;2022-07-10T10:41:25;5.28;;;2.17;;
66327;SDS011;53133;52.862;6.602;2022-07-10T10:49:15;7.63;;;2.35;;
66327;SDS011;53133;52.862;6.602;2022-07-10T10:54:27;6.32;;;2.60;;
66327;SDS011;53133;52.862;6.602;2022-07-10T10:59:52;8.15;;;2.67;;
66327;SDS011;53133;52.862;6.602;2022-07-10T11:02:42;7.28;;;2.67;;
66327;SDS011;53133;52.862;6.602;2022-07-10T11:07:52;4.43;;;2.47;;
66327;SDS011;53133;52.862;6.602;2022-07-10T11:10:27;7.97;;;2.60;;
66327;SDS011;53133;52.862;6.602;2022-07-10T11:12:57;5.82;;;2.63;;
66327;SDS011;53133;52.862;6.602;2022-07-10T11:15:34;7.22;;;2.33;;
66327;SDS011;53133;52.862;6.602;2022-07-10T11:18:08;7.07;;;2.55;;
66327;SDS011;53133;52.862;6.602;2022-07-10T11:20:44;4.60;;;2.10;;
66327;SDS011;53133;52.862;6.602;2022-07-10T11:25:52;5.05;;;2.05;;
66327;SDS011;53133;52.862;6.602;2022-07-10T11:31:08;5.03;;;2.00;;
66327;SDS011;53133;52.862;6.602;2022-07-10T11:33:44;7.88;;;2.03;;
66327;SDS011;53133;52.862;6.602;2022-07-10T11:36:11;5.43;;;1.70;;
66327;SDS011;53133;52.862;6.602;2022-07-10T11:38:41;3.00;;;1.88;;
66327;SDS011;53133;52.862;6.602;2022-07-10T11:41:14;3.47;;;1.70;;
66327;SDS011;53133;52.862;6.602;2022-07-10T11:43:45;4.90;;;1.83;;
66327;SDS011;53133;52.862;6.602;2022-07-10T11:46:12;6.30;;;2.40;;
66327;SDS011;53133;52.862;6.602;2022-07-10T11:48:39;5.07;;;1.90;;
66327;SDS011;53133;52.862;6.602;2022-07-10T11:51:15;4.85;;;1.65;;
66327;SDS011;53133;52.862;6.602;2022-07-10T11:54:09;4.65;;;1.85;;
66327;SDS011;53133;52.862;6.602;2022-07-10T11:56:45;7.47;;;2.15;;
66327;SDS011;53133;52.862;6.602;2022-07-10T11:59:13;3.55;;;1.80;;
66327;SDS011;53133;52.862;6.602;2022-07-10T12:01:43;5.18;;;2.05;;
66327;SDS011;53133;52.862;6.602;2022-07-10T12:04:10;6.40;;;2.00;;
66327;SDS011;53133;52.862;6.602;2022-07-10T12:06:39;5.35;;;2.17;;
66327;SDS011;53133;52.862;6.602;2022-07-10T12:09:06;8.10;;;1.80;;
66327;SDS011;53133;52.862;6.602;2022-07-10T12:11:33;5.55;;;1.67;;
66327;SDS011;53133;52.862;6.602;2022-07-10T12:14:16;4.40;;;1.75;;
66327;SDS011;53133;52.862;6.602;2022-07-10T12:16:44;4.38;;;2.00;;
66327;SDS011;53133;52.862;6.602;2022-07-10T12:19:12;4.50;;;1.77;;
66327;SDS011;53133;52.862;6.602;2022-07-10T12:21:43;8.98;;;2.55;;
66327;SDS011;53133;52.862;6.602;2022-07-10T12:24:10;7.45;;;2.45;;
66327;SDS011;53133;52.862;6.602;2022-07-10T12:26:40;4.65;;;2.17;;
66327;SDS011;53133;52.862;6.602;2022-07-10T12:29:27;6.70;;;2.50;;
66327;SDS011;53133;52.862;6.602;2022-07-10T12:31:54;5.18;;;2.15;;
66327;SDS011;53133;52.862;6.602;2022-07-10T12:34:35;7.28;;;2.50;;
66327;SDS011;53133;52.862;6.602;2022-07-10T12:37:11;6.10;;;2.38;;
66327;SDS011;53133;52.862;6.602;2022-07-10T12:39:38;6.05;;;2.42;;
66327;SDS011;53133;52.862;6.602;2022-07-10T12:42:23;8.43;;;2.47;;
66327;SDS011;53133;52.862;6.602;2022-07-10T12:44:53;8.45;;;2.53;;
66327;SDS011;53133;52.862;6.602;2022-07-10T12:47:20;6.03;;;2.53;;
66327;SDS011;53133;52.862;6.602;2022-07-10T12:49:56;7.57;;;2.38;;
66327;SDS011;53133;52.862;6.602;2022-07-10T12:52:35;8.25;;;2.33;;
66327;SDS011;53133;52.862;6.602;2022-07-10T12:57:45;9.32;;;2.75;;
66327;SDS011;53133;52.862;6.602;2022-07-10T13:00:18;7.15;;;2.35;;
66327;SDS011;53133;52.862;6.602;2022-07-10T13:02:46;8.35;;;2.63;;
66327;SDS011;53133;52.862;6.602;2022-07-10T13:08:13;5.95;;;2.10;;
66327;SDS011;53133;52.862;6.602;2022-07-10T13:10:57;4.93;;;2.22;;
66327;SDS011;53133;52.862;6.602;2022-07-10T13:13:26;4.03;;;2.00;;
66327;SDS011;53133;52.862;6.602;2022-07-10T13:15:53;5.03;;;2.03;;
66327;SDS011;53133;52.862;6.602;2022-07-10T13:18:20;6.60;;;2.08;;
66327;SDS011;53133;52.862;6.602;2022-07-10T13:20:51;7.97;;;2.13;;
66327;SDS011;53133;52.862;6.602;2022-07-10T13:23:21;7.05;;;2.28;;
66327;SDS011;53133;52.862;6.602;2022-07-10T13:25:57;4.90;;;2.00;;
66327;SDS011;53133;52.862;6.602;2022-07-10T13:28:26;8.75;;;2.47;;
66327;SDS011;53133;52.862;6.602;2022-07-10T13:30:52;3.70;;;1.70;;
66327;SDS011;53133;52.862;6.602;2022-07-10T13:33:17;5.82;;;1.88;;
66327;SDS011;53133;52.862;6.602;2022-07-10T13:35:43;5.55;;;2.15;;
66327;SDS011;53133;52.862;6.602;2022-07-10T13:38:09;4.20;;;1.80;;
66327;SDS011;53133;52.862;6.602;2022-07-10T13:40:35;5.43;;;1.90;;
66327;SDS011;53133;52.862;6.602;2022-07-10T13:43:02;4.45;;;2.05;;
66327;SDS011;53133;52.862;6.602;2022-07-10T13:45:28;4.50;;;2.00;;
66327;SDS011;53133;52.862;6.602;2022-07-10T13:47:58;7.10;;;2.08;;
66327;SDS011;53133;52.862;6.602;2022-07-10T13:50:24;4.18;;;1.98;;
66327;SDS011;53133;52.862;6.602;2022-07-10T13:52:50;7.18;;;1.90;;
66327;SDS011;53133;52.862;6.602;2022-07-10T13:55:16;4.72;;;2.03;;
66327;SDS011;53133;52.862;6.602;2022-07-10T13:57:42;4.53;;;1.90;;
66327;SDS011;53133;52.862;6.602;2022-07-10T14:00:09;6.32;;;1.75;;
66327;SDS011;53133;52.862;6.602;2022-07-10T14:02:34;5.50;;;2.05;;
66327;SDS011;53133;52.862;6.602;2022-07-10T14:05:00;3.97;;;1.77;;
66327;SDS011;53133;52.862;6.602;2022-07-10T14:07:26;3.83;;;1.73;;
66327;SDS011;53133;52.862;6.602;2022-07-10T14:09:51;6.00;;;2.03;;
66327;SDS011;53133;52.862;6.602;2022-07-10T14:12:17;3.00;;;1.80;;
66327;SDS011;53133;52.862;6.602;2022-07-10T14:14:43;5.05;;;2.22;;
66327;SDS011;53133;52.862;6.602;2022-07-10T14:17:08;7.88;;;2.03;;
66327;SDS011;53133;52.862;6.602;2022-07-10T14:19:34;8.18;;;2.03;;
66327;SDS011;53133;52.862;6.602;2022-07-10T14:21:59;6.15;;;1.80;;
66327;SDS011;53133;52.862;6.602;2022-07-10T14:24:25;5.15;;;2.10;;
66327;SDS011;53133;52.862;6.602;2022-07-10T14:26:51;5.80;;;1.90;;
66327;SDS011;53133;52.862;6.602;2022-07-10T14:29:18;7.20;;;1.80;;
66327;SDS011;53133;52.862;6.602;2022-07-10T14:31:44;6.85;;;2.20;;
66327;SDS011;53133;52.862;6.602;2022-07-10T14:34:13;7.90;;;2.08;;
66327;SDS011;53133;52.862;6.602;2022-07-10T14:36:38;4.28;;;2.00;;
66327;SDS011;53133;52.862;6.602;2022-07-10T14:39:04;6.38;;;2.10;;
66327;SDS011;53133;52.862;6.602;2022-07-10T14:41:30;5.47;;;2.22;;
66327;SDS011;53133;52.862;6.602;2022-07-10T14:43:55;5.55;;;1.88;;
66327;SDS011;53133;52.862;6.602;2022-07-10T14:46:21;5.07;;;2.03;;
66327;SDS011;53133;52.862;6.602;2022-07-10T14:48:47;4.25;;;1.92;;
66327;SDS011;53133;52.862;6.602;2022-07-10T14:51:12;4.80;;;1.50;;
66327;SDS011;53133;52.862;6.602;2022-07-10T14:53:38;4.05;;;2.03;;
66327;SDS011;53133;52.862;6.602;2022-07-10T14:56:06;3.60;;;1.75;;
66327;SDS011;53133;52.862;6.602;2022-07-10T14:58:32;6.20;;;2.28;;
66327;SDS011;53133;52.862;6.602;2022-07-10T15:00:58;8.00;;;2.28;;
66327;SDS011;53133;52.862;6.602;2022-07-10T15:03:24;6.40;;;1.90;;
66327;SDS011;53133;52.862;6.602;2022-07-10T15:05:50;3.47;;;1.77;;
66327;SDS011;53133;52.862;6.602;2022-07-10T15:08:20;4.32;;;1.98;;
66327;SDS011;53133;52.862;6.602;2022-07-10T15:10:47;7.05;;;2.20;;
66327;SDS011;53133;52.862;6.602;2022-07-10T15:13:13;4.45;;;2.00;;
66327;SDS011;53133;52.862;6.602;2022-07-10T15:15:39;3.78;;;2.03;;
66327;SDS011;53133;52.862;6.602;2022-07-10T15:18:05;4.25;;;1.83;;
66327;SDS011;53133;52.862;6.602;2022-07-10T15:20:31;6.22;;;1.98;;
66327;SDS011;53133;52.862;6.602;2022-07-10T15:22:56;5.00;;;1.88;;
66327;SDS011;53133;52.862;6.602;2022-07-10T15:25:22;12.27;;;2.13;;
66327;SDS011;53133;52.862;6.602;2022-07-10T15:27:50;4.70;;;1.90;;